15:23
Airports
Links
Donate
Help keep this website running!
PayPal
Bitcoin
METAR
ZSHC 191500Z 12001MPS 2000 BR BKN009 BKN020 08/07 Q1023 NOSIG
Current Weather Conditions at ZSHC
IFR 15:00:00 19-01-18
Altimeter:30.21 hg
Temp:8.0°c 46°f
Dew point:7.0°c 45°f
Wind:2 knots, 2.3 mph, 1 m/s, from 120°
Visibility:1.24 statute miles
2000(BKN) Broken
900(BKN) Broken
No significant weather changes expected within 2 hours.
Past METAR reports
IFR 14:30:00 19-01-18
Altimeter:30.21 hg
Temp:8.0°c 46°f
Dew point:7.0°c 45°f
Wind:4 knots, 4.6 mph, 2 m/s, from 90°
Visibility:1.24 statute miles
2000(BKN) Broken
900(BKN) Broken
No significant weather changes expected within 2 hours.
ZSHC 191430Z 09002MPS 2000 BR BKN009 BKN020 08/07 Q1023 NOSIG
IFR 14:00:00 19-01-18
Altimeter:30.21 hg
Temp:8.0°c 46°f
Dew point:7.0°c 45°f
Wind:2 knots, 2.3 mph, 1 m/s, from 80°
Visibility:1.12 statute miles
2000(BKN) Broken
600(BKN) Broken
No significant weather changes expected within 2 hours.
ZSHC 191400Z 08001MPS 1800 BR BKN006 BKN020 08/07 Q1023 NOSIG
IFR 13:30:00 19-01-18
Altimeter:30.24 hg
Temp:8.0°c 46°f
Dew point:7.0°c 45°f
Wind:2 knots, 2.3 mph, 1 m/s, from 90°
Visibility:1.12 statute miles
2000(BKN) Broken
600(BKN) Broken
No significant weather changes expected within 2 hours.
ZSHC 191330Z 09001MPS 1800 BR BKN006 BKN020 08/07 Q1024 NOSIG
IFR 13:00:00 19-01-18
Altimeter:30.24 hg
Temp:8.0°c 46°f
Dew point:7.0°c 45°f
Wind:2 knots, 2.3 mph, 1 m/s,
Variable direction
Visibility:1.12 statute miles
2000(BKN) Broken
600(BKN) Broken
No significant weather changes expected within 2 hours.
ZSHC 191300Z VRB01MPS 1800 BR BKN006 BKN020 08/07 Q1024 NOSIG
IFR 12:30:00 19-01-18
Altimeter:30.21 hg
Temp:8.0°c 46°f
Dew point:7.0°c 45°f
Wind:4 knots, 4.6 mph, 2 m/s, from 100°
Visibility:1.12 statute miles
2000(BKN) Broken
600(BKN) Broken
No significant weather changes expected within 2 hours.
ZSHC 191230Z 10002MPS 1800 BR BKN006 BKN020 08/07 Q1023 NOSIG
IFR 12:00:00 19-01-18
Altimeter:30.21 hg
Temp:9.0°c 48°f
Dew point:7.0°c 45°f
Wind:2 knots, 2.3 mph, 1 m/s,
Variable direction
Visibility:1.12 statute miles
2000(BKN) Broken
600(BKN) Broken
No significant weather changes expected within 2 hours.
ZSHC 191200Z VRB01MPS 1800 BR BKN006 BKN020 09/07 Q1023 NOSIG
TAF
TAF ZSHC 190914Z 1912/2012 09003MPS 1600 BR BKN005 BKN020 TX09/2006Z TN06/1921Z BECMG 1917/1918 1200 BR TEMPO 1918/1924 0700 FG BECMG 2000/2001 1600 -RA BR
Forecast at ZSHC
12:00 19-01-18 to 17:00 19-01-18
BR
Wind:6 Knots from 90°
Visibility:0.99 statute miles
500BKN Broken
2000BKN Broken
BECMG 17:00 19-01-18 to 00:00 20-01-18
BR
Wind:6 Knots from 90°
Visibility:0.75 statute miles
500BKN Broken
2000BKN Broken
TEMPO 18:00 19-01-18 to 00:00 20-01-18
FG
Visibility:0.43 statute miles
BECMG 00:00 20-01-18 to 12:00 20-01-18
-RA BR
Wind:6 Knots from 90°
Visibility:0.99 statute miles
500BKN Broken
2000BKN Broken